createdAt,value
2023-01-19T00:01:07.859Z,2.80
2023-01-19T00:03:37.895Z,2.80
2023-01-19T00:06:07.304Z,2.80
2023-01-19T00:08:36.565Z,2.80
2023-01-19T00:11:05.685Z,2.90
2023-01-19T00:13:34.618Z,2.80
2023-01-19T00:16:03.318Z,2.90
2023-01-19T00:18:31.833Z,2.90
2023-01-19T00:21:01.648Z,2.90
2023-01-19T00:23:30.287Z,2.90
2023-01-19T00:25:58.859Z,2.90
2023-01-19T00:28:27.464Z,2.90
2023-01-19T00:30:56.146Z,2.90
2023-01-19T00:33:24.670Z,2.90
2023-01-19T00:35:54.913Z,2.90
2023-01-19T00:38:24.820Z,2.90
2023-01-19T00:40:53.308Z,3.00
2023-01-19T00:43:20.947Z,3.00
2023-01-19T00:45:49.515Z,3.00
2023-01-19T00:48:18.062Z,3.00
2023-01-19T00:50:46.554Z,3.00
2023-01-19T00:53:15.070Z,2.90
2023-01-19T00:55:45.032Z,2.90
2023-01-19T00:58:13.502Z,2.80
2023-01-19T01:00:42.010Z,2.80
2023-01-19T01:03:11.228Z,2.80
2023-01-19T01:05:42.457Z,2.80
2023-01-19T01:08:10.925Z,2.90
2023-01-19T01:10:39.432Z,2.80
2023-01-19T01:13:20.239Z,2.80
2023-01-19T01:15:51.344Z,2.80
2023-01-19T01:18:20.702Z,2.80
2023-01-19T01:20:49.461Z,2.80
2023-01-19T01:23:23.007Z,2.70
2023-01-19T01:25:51.722Z,2.70
2023-01-19T01:28:21.611Z,2.60
2023-01-19T01:30:53.834Z,2.50
2023-01-19T01:33:41.340Z,2.40
2023-01-19T01:36:11.549Z,2.40
2023-01-19T01:38:40.627Z,2.40
2023-01-19T01:41:09.711Z,2.40
2023-01-19T01:43:49.186Z,2.40
2023-01-19T01:46:19.855Z,2.40
2023-01-19T01:48:53.678Z,2.50
2023-01-19T01:51:27.494Z,2.40
2023-01-19T01:54:07.667Z,2.40
2023-01-19T01:56:39.673Z,2.40
2023-01-19T01:59:13.793Z,2.40
2023-01-19T02:01:59.553Z,2.40
2023-01-19T02:04:29.544Z,2.40
2023-01-19T02:07:15.387Z,2.50
2023-01-19T02:10:01.436Z,2.50
2023-01-19T02:12:47.640Z,2.50
2023-01-19T02:15:18.585Z,2.50
2023-01-19T02:17:47.869Z,2.50
2023-01-19T02:20:17.334Z,2.50
2023-01-19T02:22:50.089Z,2.60
2023-01-19T02:25:21.059Z,2.60
2023-01-19T02:27:50.228Z,2.60
2023-01-19T02:30:19.628Z,2.70
2023-01-19T02:32:48.262Z,2.70
2023-01-19T02:35:17.133Z,2.80
2023-01-19T02:37:46.246Z,2.80
2023-01-19T02:40:19.678Z,2.90
2023-01-19T02:42:51.592Z,3.00
2023-01-19T02:45:22.805Z,3.00
2023-01-19T02:47:53.319Z,3.10
2023-01-19T02:50:43.632Z,3.10
2023-01-19T02:53:34.082Z,3.10
2023-01-19T02:56:08.983Z,3.10
2023-01-19T02:58:46.604Z,3.20
2023-01-19T03:01:22.772Z,3.20
2023-01-19T03:03:57.557Z,3.20
2023-01-19T03:06:37.534Z,3.20
2023-01-19T03:09:10.740Z,3.20
2023-01-19T03:11:42.967Z,3.20
2023-01-19T03:14:15.922Z,3.20
2023-01-19T03:16:48.536Z,3.20
2023-01-19T03:19:21.406Z,3.30
2023-01-19T03:21:54.024Z,3.20
2023-01-19T03:24:23.914Z,3.20
2023-01-19T03:26:57.851Z,3.30
2023-01-19T03:29:31.248Z,3.30
2023-01-19T03:32:02.671Z,3.30
2023-01-19T03:34:31.936Z,3.30
2023-01-19T03:37:04.195Z,3.30
2023-01-19T03:39:33.059Z,3.30
2023-01-19T03:42:05.201Z,3.30
2023-01-19T03:44:38.425Z,3.30
2023-01-19T03:47:08.740Z,3.30
2023-01-19T03:49:38.838Z,3.30
2023-01-19T03:52:07.507Z,3.30
2023-01-19T03:54:36.100Z,3.20
2023-01-19T03:57:04.964Z,3.20
2023-01-19T03:59:35.629Z,3.20
2023-01-19T04:02:04.160Z,3.10
2023-01-19T04:04:32.809Z,3.10
2023-01-19T04:07:01.394Z,3.00
2023-01-19T04:09:30.112Z,2.90
2023-01-19T04:11:58.677Z,2.90
2023-01-19T04:14:27.235Z,2.80
2023-01-19T04:16:57.120Z,2.70
2023-01-19T04:19:25.701Z,2.70
2023-01-19T04:21:55.322Z,2.60
2023-01-19T04:24:23.823Z,2.60
2023-01-19T04:26:53.395Z,2.50
2023-01-19T04:29:21.957Z,2.50
2023-01-19T04:31:50.492Z,2.50
2023-01-19T04:34:20.316Z,2.40
2023-01-19T04:36:51.059Z,2.40
2023-01-19T04:39:19.630Z,2.40
2023-01-19T04:41:48.103Z,2.30
2023-01-19T04:44:16.612Z,2.30
2023-01-19T04:46:45.160Z,2.30
2023-01-19T04:49:13.955Z,2.30
2023-01-19T04:51:44.311Z,2.30
2023-01-19T04:54:12.891Z,2.20
2023-01-19T04:56:41.804Z,2.20
2023-01-19T04:59:10.365Z,2.20
2023-01-19T05:01:38.929Z,2.20
2023-01-19T05:04:08.406Z,2.20
2023-01-19T05:06:37.269Z,2.20
2023-01-19T05:09:07.923Z,2.20
2023-01-19T05:11:36.481Z,2.20
2023-01-19T05:14:05.021Z,2.30
2023-01-19T05:16:34.577Z,2.30
2023-01-19T05:19:03.121Z,2.30
2023-01-19T05:21:31.675Z,2.30
2023-01-19T05:24:00.436Z,2.30
2023-01-19T05:26:30.278Z,2.30
2023-01-19T05:28:58.736Z,2.30
2023-01-19T05:31:27.481Z,2.40
2023-01-19T05:33:56.141Z,2.40
2023-01-19T05:36:24.654Z,2.40
2023-01-19T05:38:53.197Z,2.50
2023-01-19T05:41:21.677Z,2.60
2023-01-19T05:43:51.546Z,2.60
2023-01-19T05:46:20.182Z,2.60
2023-01-19T05:48:48.721Z,2.60
2023-01-19T05:51:17.339Z,2.60
2023-01-19T05:53:45.907Z,2.60
2023-01-19T05:56:14.530Z,2.60
2023-01-19T05:58:43.145Z,2.60
2023-01-19T06:01:13.684Z,2.60
2023-01-19T06:03:42.369Z,2.70
2023-01-19T06:06:11.576Z,2.70
2023-01-19T06:08:40.476Z,2.70
2023-01-19T06:11:09.333Z,2.70
2023-01-19T06:13:41.267Z,2.60
2023-01-19T06:16:12.759Z,2.70
2023-01-19T06:18:41.681Z,2.70
2023-01-19T06:21:13.583Z,2.60
2023-01-19T06:23:42.396Z,2.60
2023-01-19T06:26:10.932Z,2.60
2023-01-19T06:28:39.493Z,2.50
2023-01-19T06:31:08.022Z,2.50
2023-01-19T06:33:37.918Z,2.50
2023-01-19T06:36:07.043Z,2.50
2023-01-19T06:38:35.558Z,2.50
2023-01-19T06:41:04.772Z,2.50
2023-01-19T06:43:33.514Z,2.40
2023-01-19T06:46:02.999Z,2.40
2023-01-19T06:48:31.609Z,2.40
2023-01-19T06:51:01.676Z,2.40
2023-01-19T06:53:30.269Z,2.50
2023-01-19T06:56:03.413Z,2.30
2023-01-19T06:58:34.810Z,2.30
2023-01-19T07:01:03.672Z,2.30
2023-01-19T07:03:32.884Z,2.30
2023-01-19T07:06:03.357Z,2.30
2023-01-19T07:08:31.872Z,2.20
2023-01-19T07:11:25.948Z,2.20
2023-01-19T07:13:51.719Z,2.20
2023-01-19T07:16:20.486Z,2.20
2023-01-19T07:18:49.976Z,2.20
2023-01-19T07:21:20.247Z,2.30
2023-01-19T07:23:49.655Z,2.30
2023-01-19T07:26:21.336Z,2.30
2023-01-19T07:28:50.140Z,2.30
2023-01-19T07:31:19.268Z,2.20
2023-01-19T07:33:48.257Z,2.20
2023-01-19T07:36:16.820Z,2.20
2023-01-19T07:38:46.701Z,2.10
2023-01-19T07:41:15.271Z,2.10
2023-01-19T07:43:43.744Z,2.10
2023-01-19T07:46:12.267Z,2.10
2023-01-19T07:48:40.732Z,2.10
2023-01-19T07:51:13.062Z,2.10
2023-01-19T07:53:42.263Z,2.10
2023-01-19T07:56:12.477Z,2.10
2023-01-19T07:58:41.238Z,2.10
2023-01-19T08:01:11.041Z,2.20
2023-01-19T08:03:40.513Z,2.20
2023-01-19T08:06:15.522Z,2.20
2023-01-19T08:08:43.972Z,2.20
2023-01-19T08:11:13.830Z,2.10
2023-01-19T08:13:42.550Z,2.10
2023-01-19T08:16:11.209Z,2.10
2023-01-19T08:18:39.692Z,2.10
2023-01-19T08:21:08.257Z,2.10
2023-01-19T08:23:36.792Z,2.00
2023-01-19T08:26:20.642Z,2.00
2023-01-19T08:28:49.259Z,2.00
2023-01-19T08:31:21.067Z,1.90
2023-01-19T08:33:51.353Z,2.00
2023-01-19T08:36:19.966Z,1.90
2023-01-19T08:38:48.835Z,1.90
2023-01-19T08:41:17.493Z,1.90
2023-01-19T08:43:47.635Z,1.90
2023-01-19T08:46:17.701Z,1.90
2023-01-19T08:48:48.145Z,2.00
2023-01-19T08:51:16.796Z,2.00
2023-01-19T08:53:45.409Z,2.00
2023-01-19T08:56:14.547Z,2.00
2023-01-19T08:58:44.490Z,2.10
2023-01-19T09:01:16.890Z,2.10
2023-01-19T09:03:45.806Z,2.20
2023-01-19T09:06:17.119Z,2.30
2023-01-19T09:08:45.703Z,2.30
2023-01-19T09:11:16.416Z,2.50
2023-01-19T09:13:45.068Z,2.60
2023-01-19T09:16:15.952Z,2.90
2023-01-19T09:18:46.121Z,2.90
2023-01-19T09:21:15.194Z,3.00
2023-01-19T09:23:43.712Z,3.10
2023-01-19T09:26:12.386Z,3.30
2023-01-19T09:28:41.068Z,3.30
2023-01-19T09:31:10.350Z,3.40
2023-01-19T09:33:40.402Z,3.40
2023-01-19T09:36:09.586Z,3.40
2023-01-19T09:38:38.476Z,3.40
2023-01-19T09:41:18.294Z,3.40
2023-01-19T09:43:52.503Z,3.40
2023-01-19T09:46:25.715Z,3.30
2023-01-19T09:49:01.497Z,3.30
2023-01-19T09:51:35.319Z,3.20
2023-01-19T09:54:14.120Z,3.20
2023-01-19T09:56:43.676Z,3.20
2023-01-19T09:59:21.016Z,3.20
2023-01-19T10:02:23.917Z,3.20
2023-01-19T10:05:00.969Z,3.20
2023-01-19T10:07:44.006Z,3.20
2023-01-19T10:10:20.477Z,3.20
2023-01-19T10:13:11.080Z,3.30
2023-01-19T10:15:48.052Z,3.30
2023-01-19T10:18:20.961Z,3.40
2023-01-19T10:20:53.578Z,3.40
2023-01-19T10:23:33.450Z,3.50
2023-01-19T10:26:07.133Z,3.50
2023-01-19T10:28:38.826Z,3.50
2023-01-19T10:31:09.632Z,3.60
2023-01-19T10:33:40.512Z,3.60
2023-01-19T10:36:19.728Z,3.70
2023-01-19T10:38:49.800Z,3.70
2023-01-19T10:41:27.259Z,3.80
2023-01-19T10:44:04.272Z,3.80
2023-01-19T10:46:39.844Z,3.80
2023-01-19T10:49:21.455Z,3.90
2023-01-19T10:51:52.854Z,3.90
2023-01-19T10:54:22.831Z,3.90
2023-01-19T10:56:57.087Z,4.00
2023-01-19T10:59:37.497Z,4.00
2023-01-19T11:02:18.414Z,4.00
2023-01-19T11:04:50.153Z,4.00
2023-01-19T11:07:23.408Z,4.10
2023-01-19T11:10:22.898Z,4.10
2023-01-19T11:13:01.396Z,4.10
2023-01-19T11:15:37.282Z,4.10
2023-01-19T11:18:07.554Z,4.20
2023-01-19T11:20:47.822Z,4.20
2023-01-19T11:23:26.727Z,4.20
2023-01-19T11:25:58.235Z,4.30
2023-01-19T11:28:31.427Z,4.30
2023-01-19T11:31:01.894Z,4.50
2023-01-19T11:33:36.104Z,4.50
2023-01-19T11:36:07.348Z,4.70
2023-01-19T11:38:44.946Z,4.80
2023-01-19T11:41:19.821Z,4.90
2023-01-19T11:43:52.750Z,5.00
2023-01-19T11:46:22.505Z,5.10
2023-01-19T11:48:57.343Z,5.20
2023-01-19T11:51:28.948Z,5.30
2023-01-19T11:53:58.976Z,5.40
2023-01-19T11:56:30.341Z,5.50
2023-01-19T11:58:59.000Z,5.60
2023-01-19T12:01:31.586Z,5.80
2023-01-19T12:04:05.470Z,5.80
2023-01-19T12:06:36.591Z,6.00
2023-01-19T12:09:13.985Z,6.00
2023-01-19T12:11:47.150Z,6.10
2023-01-19T12:14:20.817Z,6.10
2023-01-19T12:16:52.147Z,6.00
2023-01-19T12:19:25.685Z,6.10
2023-01-19T12:21:54.623Z,6.20
2023-01-19T12:24:31.011Z,6.20
2023-01-19T12:27:01.941Z,6.20
2023-01-19T12:29:34.323Z,6.30
2023-01-19T12:32:19.856Z,6.30
2023-01-19T12:34:49.403Z,6.40
2023-01-19T12:37:38.884Z,6.40
2023-01-19T12:40:27.639Z,6.40
2023-01-19T12:43:00.626Z,6.40
2023-01-19T12:45:34.701Z,6.40
2023-01-19T12:48:04.980Z,6.30
2023-01-19T12:50:37.687Z,6.20
2023-01-19T12:53:16.853Z,6.20
2023-01-19T12:55:47.639Z,6.10
2023-01-19T12:58:18.945Z,6.10
2023-01-19T13:00:49.566Z,6.00
2023-01-19T13:03:43.949Z,6.00
2023-01-19T13:06:12.418Z,5.90
2023-01-19T13:09:01.787Z,5.90
2023-01-19T13:11:34.554Z,5.80
2023-01-19T13:14:36.135Z,5.80
2023-01-19T13:17:29.077Z,5.80
2023-01-19T13:20:27.253Z,5.90
2023-01-19T13:23:17.695Z,5.90
2023-01-19T13:25:51.364Z,6.00
2023-01-19T13:28:29.280Z,6.00
2023-01-19T13:31:02.500Z,6.00
2023-01-19T13:33:40.852Z,6.00
2023-01-19T13:36:20.763Z,6.00
2023-01-19T13:38:50.917Z,6.10
2023-01-19T13:41:23.966Z,6.10
2023-01-19T13:44:03.058Z,6.20
2023-01-19T13:46:33.676Z,6.20
2023-01-19T13:49:06.178Z,6.30
2023-01-19T13:51:34.678Z,6.40
2023-01-19T13:54:03.156Z,6.30
2023-01-19T13:56:31.910Z,6.30
2023-01-19T13:59:11.592Z,6.20
2023-01-19T14:01:41.987Z,6.20
2023-01-19T14:04:28.445Z,6.20
2023-01-19T14:07:00.127Z,6.20
2023-01-19T14:09:29.011Z,6.20
2023-01-19T14:12:11.393Z,6.20
2023-01-19T14:14:41.969Z,6.20
2023-01-19T14:17:25.706Z,6.20
2023-01-19T14:19:55.460Z,6.10
2023-01-19T14:22:39.694Z,6.10
2023-01-19T14:25:29.007Z,6.00
2023-01-19T14:28:29.268Z,6.10
2023-01-19T14:31:00.902Z,5.90
2023-01-19T14:33:36.952Z,5.90
2023-01-19T14:36:29.354Z,5.80
2023-01-19T14:39:00.107Z,5.80
2023-01-19T14:41:34.605Z,5.70
2023-01-19T14:44:03.547Z,5.60
2023-01-19T14:46:33.650Z,5.50
2023-01-19T14:49:05.268Z,5.50
2023-01-19T14:51:34.099Z,5.40
2023-01-19T14:54:03.771Z,5.40
2023-01-19T14:56:34.051Z,5.20
2023-01-19T14:59:03.254Z,5.10
2023-01-19T15:01:33.231Z,5.00
2023-01-19T15:04:01.852Z,4.90
2023-01-19T15:06:30.578Z,4.80
2023-01-19T15:08:59.417Z,4.70
2023-01-19T15:11:31.115Z,4.70
2023-01-19T15:14:00.047Z,4.60
2023-01-19T15:16:30.189Z,4.50
2023-01-19T15:19:00.056Z,4.40
2023-01-19T15:21:28.551Z,4.30
2023-01-19T15:23:58.320Z,4.30
2023-01-19T15:26:27.603Z,4.20
2023-01-19T15:28:57.251Z,4.20
2023-01-19T15:31:27.612Z,4.10
2023-01-19T15:33:56.331Z,4.10
2023-01-19T15:36:26.372Z,4.00
2023-01-19T15:38:57.031Z,3.90
2023-01-19T15:41:28.623Z,3.80
2023-01-19T15:43:57.212Z,3.80
2023-01-19T15:46:26.642Z,3.70
2023-01-19T15:48:55.581Z,3.70
2023-01-19T15:51:27.450Z,3.60
2023-01-19T15:53:56.562Z,3.60
2023-01-19T15:56:27.007Z,3.50
2023-01-19T15:58:56.430Z,3.40
2023-01-19T16:01:31.177Z,3.50
2023-01-19T16:04:01.452Z,3.40
2023-01-19T16:06:32.322Z,3.30
2023-01-19T16:09:01.339Z,3.20
2023-01-19T16:11:32.333Z,3.20
2023-01-19T16:14:01.393Z,3.10
2023-01-19T16:16:30.167Z,3.00
2023-01-19T16:18:58.909Z,3.00
2023-01-19T16:21:28.098Z,2.90
2023-01-19T16:23:57.938Z,2.90
2023-01-19T16:26:32.453Z,2.80
2023-01-19T16:29:02.535Z,2.70
2023-01-19T16:31:31.090Z,2.60
2023-01-19T16:33:59.569Z,2.60
2023-01-19T16:36:29.730Z,2.60
2023-01-19T16:39:01.815Z,2.50
2023-01-19T16:41:30.345Z,2.40
2023-01-19T16:43:59.131Z,2.40
2023-01-19T16:46:29.856Z,2.30
2023-01-19T16:49:01.611Z,2.30
2023-01-19T16:51:30.496Z,2.30
2023-01-19T16:54:00.705Z,2.30
2023-01-19T16:56:29.533Z,2.20
2023-01-19T16:58:59.059Z,2.20
2023-01-19T17:01:29.586Z,2.10
2023-01-19T17:03:58.157Z,2.00
2023-01-19T17:06:28.079Z,2.00
2023-01-19T17:08:56.539Z,1.90
2023-01-19T17:11:28.668Z,1.90
2023-01-19T17:14:00.094Z,1.80
2023-01-19T17:16:30.801Z,1.80
2023-01-19T17:19:01.349Z,1.70
2023-01-19T17:21:30.251Z,1.60
2023-01-19T17:23:59.977Z,1.60
2023-01-19T17:26:31.029Z,1.50
2023-01-19T17:29:00.656Z,1.40
2023-01-19T17:31:29.970Z,1.40
2023-01-19T17:33:59.854Z,1.30
2023-01-19T17:36:29.962Z,1.30
2023-01-19T17:39:00.447Z,1.20
2023-01-19T17:41:31.856Z,1.20
2023-01-19T17:44:01.498Z,1.10
2023-01-19T17:46:30.775Z,1.10
2023-01-19T17:49:02.277Z,1.10
2023-01-19T17:51:32.219Z,1.10
2023-01-19T17:54:00.720Z,1.10
2023-01-19T17:56:36.837Z,1.00
2023-01-19T17:59:07.983Z,1.00
2023-01-19T18:01:39.948Z,1.00
2023-01-19T18:04:09.754Z,0.90
2023-01-19T18:06:38.814Z,0.90
2023-01-19T18:09:07.960Z,0.90
2023-01-19T18:11:37.864Z,0.90
2023-01-19T18:14:06.857Z,0.80
2023-01-19T18:16:36.157Z,0.90
2023-01-19T18:19:05.025Z,0.80
2023-01-19T18:21:33.518Z,0.80
2023-01-19T18:24:04.597Z,0.90
2023-01-19T18:26:34.604Z,0.90
2023-01-19T18:29:04.708Z,0.90
2023-01-19T18:31:33.397Z,0.90
2023-01-19T18:34:02.029Z,1.00
2023-01-19T18:36:32.622Z,1.00
2023-01-19T18:39:02.453Z,1.10
2023-01-19T18:41:31.286Z,1.10
2023-01-19T18:43:59.913Z,1.20
2023-01-19T18:46:29.986Z,1.20
2023-01-19T18:48:58.515Z,1.20
2023-01-19T18:51:27.074Z,1.30
2023-01-19T18:53:55.562Z,1.30
2023-01-19T18:56:24.079Z,1.30
2023-01-19T18:58:53.399Z,1.30
2023-01-19T19:01:24.735Z,1.40
2023-01-19T19:03:55.762Z,1.40
2023-01-19T19:06:27.071Z,1.40
2023-01-19T19:08:57.482Z,1.40
2023-01-19T19:11:27.794Z,1.40
2023-01-19T19:13:58.394Z,1.40
2023-01-19T19:16:27.032Z,1.40
2023-01-19T19:18:57.061Z,1.40
2023-01-19T19:21:26.243Z,1.40
2023-01-19T19:23:56.583Z,1.40
2023-01-19T19:26:26.316Z,1.50
2023-01-19T19:28:54.878Z,1.50
2023-01-19T19:31:26.138Z,1.50
2023-01-19T19:33:56.910Z,1.50
2023-01-19T19:36:26.443Z,1.50
2023-01-19T19:38:55.099Z,1.60
2023-01-19T19:41:26.892Z,1.60
2023-01-19T19:43:56.271Z,1.60
2023-01-19T19:46:25.751Z,1.60
2023-01-19T19:48:55.950Z,1.70
2023-01-19T19:51:27.031Z,1.70
2023-01-19T19:53:57.391Z,1.70
2023-01-19T19:56:27.985Z,1.70
2023-01-19T19:58:59.033Z,1.80
2023-01-19T20:01:32.574Z,1.80
2023-01-19T20:04:07.907Z,1.80
2023-01-19T20:06:39.749Z,1.90
2023-01-19T20:09:12.721Z,1.90
2023-01-19T20:11:42.137Z,2.00
2023-01-19T20:14:12.969Z,2.00
2023-01-19T20:16:41.744Z,2.00
2023-01-19T20:19:11.760Z,2.00
2023-01-19T20:21:42.417Z,2.10
2023-01-19T20:24:14.931Z,2.10
2023-01-19T20:26:46.267Z,2.10
2023-01-19T20:29:14.825Z,2.10
2023-01-19T20:31:46.505Z,2.20
2023-01-19T20:34:17.921Z,2.20
2023-01-19T20:36:49.657Z,2.20
2023-01-19T20:39:19.283Z,2.20
2023-01-19T20:41:50.893Z,2.40
2023-01-19T20:44:22.700Z,2.20
2023-01-19T20:46:52.456Z,2.20
2023-01-19T20:49:22.941Z,2.20
2023-01-19T20:51:52.009Z,2.30
2023-01-19T20:54:22.910Z,2.20
2023-01-19T20:56:51.426Z,2.20
2023-01-19T20:59:20.384Z,2.30
2023-01-19T21:01:49.659Z,2.20
2023-01-19T21:04:18.413Z,2.20
2023-01-19T21:06:48.408Z,2.20
2023-01-19T21:09:18.563Z,2.30
2023-01-19T21:11:47.200Z,2.20
2023-01-19T21:14:15.746Z,2.10
2023-01-19T21:16:44.367Z,2.10
2023-01-19T21:19:13.238Z,2.10
2023-01-19T21:21:41.880Z,2.10
2023-01-19T21:24:12.158Z,2.10
2023-01-19T21:26:41.765Z,2.10
2023-01-19T21:29:13.259Z,2.00
2023-01-19T21:31:42.196Z,2.00
2023-01-19T21:34:10.796Z,2.00
2023-01-19T21:36:39.261Z,2.00
2023-01-19T21:39:08.165Z,1.90
2023-01-19T21:41:39.858Z,1.90
2023-01-19T21:44:08.474Z,1.80
2023-01-19T21:46:36.960Z,1.80
2023-01-19T21:49:07.100Z,1.70
2023-01-19T21:51:37.298Z,1.60
2023-01-19T21:54:07.488Z,1.50
2023-01-19T21:56:38.622Z,1.50
2023-01-19T21:59:07.496Z,1.40
2023-01-19T22:01:36.651Z,1.30
2023-01-19T22:04:05.356Z,1.30
2023-01-19T22:06:34.142Z,1.30
2023-01-19T22:09:02.745Z,1.20
2023-01-19T22:11:31.266Z,1.20
2023-01-19T22:14:01.385Z,1.10
2023-01-19T22:16:30.751Z,1.10
2023-01-19T22:19:02.081Z,1.20
2023-01-19T22:21:32.534Z,1.20
2023-01-19T22:24:04.182Z,1.20
2023-01-19T22:26:34.237Z,1.20
2023-01-19T22:29:06.722Z,1.20
2023-01-19T22:31:35.673Z,1.20
2023-01-19T22:34:04.400Z,1.20
2023-01-19T22:36:34.431Z,1.20
2023-01-19T22:39:05.227Z,1.20
2023-01-19T22:41:35.910Z,1.20
2023-01-19T22:44:08.151Z,1.20
2023-01-19T22:46:38.279Z,1.20
2023-01-19T22:49:08.211Z,1.30
2023-01-19T22:51:37.093Z,1.30
2023-01-19T22:54:06.198Z,1.30
2023-01-19T22:56:36.756Z,1.20
2023-01-19T22:59:07.374Z,1.20
2023-01-19T23:01:38.136Z,1.20
2023-01-19T23:04:07.842Z,1.20
2023-01-19T23:06:37.798Z,1.20
2023-01-19T23:09:08.135Z,1.20
2023-01-19T23:11:38.331Z,1.30
2023-01-19T23:14:11.448Z,1.20
2023-01-19T23:16:39.962Z,1.30
2023-01-19T23:19:08.618Z,1.30
2023-01-19T23:21:37.151Z,1.30
2023-01-19T23:24:06.234Z,1.30
2023-01-19T23:26:38.099Z,1.30
2023-01-19T23:29:12.041Z,1.20
2023-01-19T23:31:43.805Z,1.30
2023-01-19T23:34:13.819Z,1.20
2023-01-19T23:36:43.775Z,1.20
2023-01-19T23:39:15.928Z,1.30
2023-01-19T23:41:44.444Z,1.20
2023-01-19T23:44:14.526Z,1.20
2023-01-19T23:46:43.814Z,1.10
2023-01-19T23:49:12.481Z,1.10
2023-01-19T23:51:41.480Z,1.00
2023-01-19T23:54:10.036Z,1.00
2023-01-19T23:56:39.575Z,0.90
2023-01-19T23:59:10.434Z,0.80
